Time;durP1;ratioP1;P1;durP2;ratioP2;P2;SDS_P1;SDS_P2;PMS_P1;PMS_P2;Temp;Humidity;BMP_temperature;BMP_pressure;BME280_temperature;BME280_humidity;BME280_pressure;Samples;Min_cycle;Max_cycle;Signal;HPM_P1;HPM_P2
2023/04/22 00:03:44;;;;;;;4.75;2.25;;;;;;;-147.53;100.00;57128.34;10454379;28;20053;-80
2023/04/22 00:08:46;;;;;;;7.57;2.90;;;;;;;-147.53;100.00;57128.34;10469657;28;20044;-81
2023/04/22 00:13:48;;;;;;;5.72;2.58;;;;;;;-147.53;100.00;57128.34;10462935;28;20432;-80
2023/04/22 00:18:49;;;;;;;6.72;3.08;;;;;;;-147.53;100.00;57128.34;10470089;28;20124;-80
2023/04/22 00:23:51;;;;;;;6.78;2.88;;;;;;;-147.53;100.00;57128.34;10477175;28;20052;-80
2023/04/22 00:28:52;;;;;;;5.20;2.53;;;;;;;-147.53;100.00;57128.34;10469061;28;20057;-80
2023/04/22 00:33:54;;;;;;;4.35;2.58;;;;;;;-147.53;100.00;57128.34;10444175;28;20136;-81
2023/04/22 00:38:56;;;;;;;5.93;2.38;;;;;;;-147.53;100.00;57128.34;10472126;28;20508;-81
2023/04/22 00:43:59;;;;;;;6.00;2.58;;;;;;;-147.53;100.00;57128.34;10438988;28;20590;-81
2023/04/22 00:49:01;;;;;;;4.93;2.30;;;;;;;-147.53;100.00;57128.34;10463289;28;20049;-80
2023/04/22 00:54:04;;;;;;;5.78;2.42;;;;;;;-147.53;100.00;57128.34;10464756;28;20591;-80
2023/04/22 00:59:08;;;;;;;6.47;2.80;;;;;;;-147.53;100.00;57128.34;10470834;28;20052;-80
2023/04/22 01:04:12;;;;;;;5.50;2.70;;;;;;;-147.53;100.00;57128.34;10448198;28;20123;-80
2023/04/22 01:09:16;;;;;;;6.70;2.88;;;;;;;-147.53;100.00;57128.34;10465341;28;20074;-80
2023/04/22 01:14:17;;;;;;;5.40;2.88;;;;;;;-147.53;100.00;57128.34;10455440;28;20573;-80
2023/04/22 01:19:19;;;;;;;6.38;2.72;;;;;;;-147.53;100.00;57128.34;10458813;28;20114;-80
2023/04/22 01:24:21;;;;;;;5.22;2.45;;;;;;;-147.53;100.00;57128.34;10441991;28;20037;-80
2023/04/22 01:29:23;;;;;;;5.05;2.58;;;;;;;-147.53;100.00;57128.34;10455504;28;20123;-80
2023/04/22 01:34:25;;;;;;;5.95;2.55;;;;;;;-147.53;100.00;57128.34;10475944;28;20148;-80
2023/04/22 01:39:28;;;;;;;5.57;2.75;;;;;;;-147.53;100.00;57128.34;10450757;28;20064;-81
2023/04/22 01:44:30;;;;;;;6.78;2.90;;;;;;;-147.53;100.00;57128.34;10448136;28;20073;-80
2023/04/22 01:49:32;;;;;;;5.80;2.67;;;;;;;-147.53;100.00;57128.34;10462403;28;20037;-80
2023/04/22 01:54:34;;;;;;;5.82;2.35;;;;;;;-147.53;100.00;57128.34;10436241;28;20527;-80
2023/04/22 01:59:36;;;;;;;6.47;2.67;;;;;;;-147.53;100.00;57128.34;10441309;28;20068;-80
2023/04/22 02:04:38;;;;;;;6.07;2.92;;;;;;;-147.53;100.00;57128.34;10447291;28;20037;-81
2023/04/22 02:09:40;;;;;;;7.35;3.05;;;;;;;-147.53;100.00;57128.34;10450080;28;20045;-80
2023/04/22 02:14:42;;;;;;;6.40;2.80;;;;;;;-147.53;100.00;57128.34;10453561;28;20055;-80
2023/04/22 02:19:44;;;;;;;5.38;2.70;;;;;;;-147.53;100.00;57128.34;10477976;28;20589;-80
2023/04/22 02:24:46;;;;;;;6.68;3.20;;;;;;;-147.53;100.00;57128.34;10450446;28;20139;-80
2023/04/22 02:29:48;;;;;;;8.02;2.97;;;;;;;-147.53;100.00;57128.34;10444020;28;20045;-80
2023/04/22 02:34:51;;;;;;;4.97;2.42;;;;;;;-147.53;100.00;57128.34;10434105;28;20117;-80
2023/04/22 02:39:54;;;;;;;8.48;3.10;;;;;;;-147.53;100.00;57128.34;10442325;28;20045;-81
2023/04/22 02:44:56;;;;;;;6.82;3.10;;;;;;;-147.53;100.00;57128.34;10433842;28;20499;-80
2023/04/22 02:49:58;;;;;;;5.75;2.88;;;;;;;-147.53;100.00;57128.34;10449238;28;20389;-80
2023/04/22 02:55:00;;;;;;;7.32;2.88;;;;;;;-147.53;100.00;57128.34;10475185;28;20847;-80
2023/04/22 03:00:03;;;;;;;5.43;2.47;;;;;;;-147.53;100.00;57128.34;10455362;28;20156;-81
2023/04/22 03:05:05;;;;;;;4.43;2.63;;;;;;;-147.53;100.00;57128.34;10450397;28;20063;-81
2023/04/22 03:10:08;;;;;;;6.75;2.78;;;;;;;-147.53;100.00;57128.34;10434078;28;20080;-80
2023/04/22 03:15:10;;;;;;;6.10;2.97;;;;;;;-147.53;100.00;57128.34;10449781;28;20247;-80
2023/04/22 03:20:12;;;;;;;4.47;2.15;;;;;;;-147.53;100.00;57128.34;10450820;28;20140;-80
2023/04/22 03:25:15;;;;;;;8.15;3.22;;;;;;;-147.53;100.00;57128.34;10443316;28;20554;-80
2023/04/22 03:30:23;;;;;;;5.68;2.90;;;;;;;-147.53;100.00;57128.34;10466365;28;20487;-80
2023/04/22 03:35:24;;;;;;;14.35;3.15;;;;;;;-147.53;100.00;57128.34;10470213;28;20080;-80
2023/04/22 03:40:27;;;;;;;5.72;2.70;;;;;;;-147.53;100.00;57128.34;10483429;28;20040;-80
2023/04/22 03:45:29;;;;;;;4.95;2.47;;;;;;;-147.53;100.00;57128.34;10467332;28;20133;-80
2023/04/22 03:50:54;;;;;;;6.15;3.33;;;;;;;-147.53;100.00;57128.34;10461905;28;20056;-80
2023/04/22 03:55:57;;;;;;;4.95;2.35;;;;;;;-147.53;100.00;57128.34;10461133;28;20488;-80
2023/04/22 04:01:00;;;;;;;7.85;2.90;;;;;;;-147.53;100.00;57128.34;10453006;28;20505;-80
2023/04/22 04:06:02;;;;;;;4.97;2.60;;;;;;;-147.53;100.00;57128.34;10444870;28;20406;-81
2023/04/22 04:11:04;;;;;;;4.93;2.28;;;;;;;-147.53;100.00;57128.34;10462942;28;20045;-80
2023/04/22 04:16:05;;;;;;;5.72;2.70;;;;;;;-147.53;100.00;57128.34;10443281;28;20057;-80
2023/04/22 04:21:10;;;;;;;4.05;2.33;;;;;;;-147.53;100.00;57128.34;10435604;28;20052;-83
2023/04/22 04:26:19;;;;;;;5.38;2.55;;;;;;;-147.53;100.00;57128.34;10457939;28;20048;-83
2023/04/22 04:31:25;;;;;;;8.65;3.22;;;;;;;-147.53;100.00;57128.34;10446121;28;20465;-80
2023/04/22 04:36:31;;;;;;;4.50;2.38;;;;;;;-147.53;100.00;57128.34;10440615;28;20428;-80
2023/04/22 04:41:44;;;;;;;6.50;2.90;;;;;;;-147.53;100.00;57128.34;10441788;28;20048;-81
2023/04/22 04:46:46;;;;;;;5.97;2.95;;;;;;;-147.53;100.00;57128.34;10468826;28;20045;-80
2023/04/22 04:51:48;;;;;;;6.47;2.97;;;;;;;-147.53;100.00;57128.34;10479225;28;20052;-80
2023/04/22 04:56:50;;;;;;;5.63;2.88;;;;;;;-147.53;100.00;57128.34;10443018;28;20069;-81
2023/04/22 05:01:52;;;;;;;5.55;2.90;;;;;;;-147.53;100.00;57128.34;10437620;28;20048;-81
2023/04/22 05:06:54;;;;;;;8.82;3.00;;;;;;;-147.53;100.00;57128.34;10462370;28;20052;-81
2023/04/22 05:11:56;;;;;;;5.18;2.35;;;;;;;-147.53;100.00;57128.34;10446533;28;20056;-81
2023/04/22 05:16:59;;;;;;;6.70;3.25;;;;;;;-147.53;100.00;57128.34;10437875;28;20044;-81
2023/04/22 05:22:02;;;;;;;5.85;3.10;;;;;;;-147.53;100.00;57128.34;10461639;28;20059;-80
2023/04/22 05:27:04;;;;;;;6.10;2.90;;;;;;;-147.53;100.00;57128.34;10440000;28;20075;-80
2023/04/22 05:32:07;;;;;;;6.30;3.33;;;;;;;-147.53;100.00;57128.34;10449248;28;20087;-80
2023/04/22 05:37:09;;;;;;;5.97;2.88;;;;;;;-147.53;100.00;57128.34;10445057;28;20512;-80
2023/04/22 05:42:15;;;;;;;5.90;2.80;;;;;;;-147.53;100.00;57128.34;10439503;28;20076;-83
2023/04/22 05:47:18;;;;;;;5.72;2.45;;;;;;;-147.53;100.00;57128.34;10444875;28;20055;-82
2023/04/22 05:52:20;;;;;;;10.38;3.25;;;;;;;-147.53;100.00;57128.34;10471761;28;20047;-82
2023/04/22 05:57:42;;;;;;;6.03;2.92;;;;;;;-147.53;100.00;57128.34;10445088;28;20036;-81
2023/04/22 06:02:59;;;;;;;7.18;2.63;;;;;;;-147.53;100.00;57128.34;10431145;28;20049;-81
2023/04/22 06:08:01;;;;;;;6.60;3.03;;;;;;;-147.53;100.00;57128.34;10472420;28;20056;-80
2023/04/22 06:13:03;;;;;;;6.30;2.80;;;;;;;-147.53;100.00;57128.34;10444715;28;20052;-81
2023/04/22 06:18:05;;;;;;;6.32;3.40;;;;;;;-147.53;100.00;57128.34;10457941;28;20040;-81
2023/04/22 06:23:06;;;;;;;5.63;2.95;;;;;;;-147.53;100.00;57128.34;10462036;28;20064;-82
2023/04/22 06:28:08;;;;;;;6.18;2.78;;;;;;;-147.53;100.00;57128.34;10440671;28;20075;-81
2023/04/22 06:33:11;;;;;;;7.20;3.50;;;;;;;-147.53;100.00;57128.34;10453089;28;20063;-80
2023/04/22 06:38:13;;;;;;;5.00;2.45;;;;;;;-147.53;100.00;57128.34;10449921;28;20404;-80
2023/04/22 06:43:30;;;;;;;7.35;3.17;;;;;;;-147.53;100.00;57128.34;10429749;28;20057;-81
2023/04/22 06:48:41;;;;;;;7.13;2.85;;;;;;;-147.53;100.00;57128.34;10481979;28;20045;-81
2023/04/22 06:54:01;;;;;;;;;;;;;;;-147.53;100.00;57128.34;10449310;28;20045;-81
2023/04/22 06:59:03;;;;;;;7.80;2.70;;;;;;;-147.53;100.00;57128.34;10450015;28;19924;-82
2023/04/22 07:04:04;;;;;;;6.00;3.22;;;;;;;-147.53;100.00;57128.34;10455180;28;20051;-81
2023/04/22 07:09:06;;;;;;;10.35;3.47;;;;;;;-147.53;100.00;57128.34;10459387;28;20040;-82
2023/04/22 07:14:08;;;;;;;7.53;3.08;;;;;;;-147.53;100.00;57128.34;10463313;28;20045;-79
2023/04/22 07:19:10;;;;;;;6.80;2.90;;;;;;;-147.53;100.00;57128.34;10449523;28;20057;-82
2023/04/22 07:24:12;;;;;;;7.57;3.17;;;;;;;-147.53;100.00;57128.34;10472371;28;20063;-82
2023/04/22 07:29:13;;;;;;;7.10;2.95;;;;;;;-147.53;100.00;57128.34;10441795;28;20048;-83
2023/04/22 07:34:16;;;;;;;7.65;3.20;;;;;;;-147.53;100.00;57128.34;10475972;28;20520;-83
2023/04/22 07:39:18;;;;;;;8.02;3.38;;;;;;;-147.53;100.00;57128.34;10499765;28;20048;-83
2023/04/22 07:44:20;;;;;;;12.30;3.20;;;;;;;-147.53;100.00;57128.34;10479767;28;20072;-83
2023/04/22 07:49:22;;;;;;;6.75;2.95;;;;;;;-147.53;100.00;57128.34;10462879;28;20091;-85
2023/04/22 07:54:24;;;;;;;6.43;2.65;;;;;;;-147.53;100.00;57128.34;10452766;28;20036;-84
2023/04/22 07:59:26;;;;;;;6.60;2.83;;;;;;;-147.53;100.00;57128.34;10471279;28;20055;-85
2023/04/22 08:04:27;;;;;;;5.38;2.30;;;;;;;-147.53;100.00;57128.34;10476672;28;20087;-82
2023/04/22 08:09:30;;;;;;;5.85;2.67;;;;;;;-147.53;100.00;57128.34;10477094;28;20041;-82
2023/04/22 08:14:31;;;;;;;7.97;2.80;;;;;;;-147.53;100.00;57128.34;10454593;28;20052;-83
2023/04/22 08:19:33;;;;;;;8.20;3.13;;;;;;;-147.53;100.00;57128.34;10465042;28;20048;-83
2023/04/22 08:24:34;;;;;;;7.90;3.00;;;;;;;-147.53;100.00;57128.34;10442356;28;20045;-84
2023/04/22 08:29:36;;;;;;;5.20;2.13;;;;;;;-147.53;100.00;57128.34;10466063;28;20048;-82
2023/04/22 08:34:38;;;;;;;6.28;2.60;;;;;;;-147.53;100.00;57128.34;10462539;28;20083;-82
2023/04/22 08:39:41;;;;;;;4.40;1.85;;;;;;;-147.53;100.00;57128.34;10469259;28;20086;-82
2023/04/22 08:44:44;;;;;;;3.83;1.70;;;;;;;-147.53;100.00;57128.34;10459484;28;20556;-82
2023/04/22 08:49:46;;;;;;;5.22;2.17;;;;;;;-147.53;100.00;57128.34;10451595;28;20363;-83
2023/04/22 08:54:47;;;;;;;3.72;1.88;;;;;;;-147.53;100.00;57128.34;10458854;28;20052;-83
2023/04/22 08:59:50;;;;;;;3.97;2.15;;;;;;;-147.53;100.00;57128.34;10484877;28;20564;-82
2023/04/22 09:04:52;;;;;;;4.35;2.20;;;;;;;-147.53;100.00;57128.34;10461263;28;20103;-83
2023/04/22 09:09:55;;;;;;;3.72;2.10;;;;;;;-147.53;100.00;57128.34;10483179;28;20045;-82
2023/04/22 09:14:56;;;;;;;5.75;2.47;;;;;;;-147.53;100.00;57128.34;10468315;28;20064;-82
2023/04/22 09:20:00;;;;;;;4.55;2.25;;;;;;;-147.53;100.00;57128.34;10453318;28;20041;-83
2023/04/22 09:25:06;;;;;;;5.38;2.00;;;;;;;-147.53;100.00;57128.34;10471063;28;20087;-83
2023/04/22 09:30:08;;;;;;;4.82;2.08;;;;;;;-147.53;100.00;57128.34;10474542;28;20052;-84
2023/04/22 09:35:10;;;;;;;4.88;2.10;;;;;;;-147.53;100.00;57128.34;10493267;28;20083;-83
2023/04/22 09:40:17;;;;;;;2.95;1.60;;;;;;;-147.53;100.00;57128.34;10464887;28;20068;-82
2023/04/22 09:45:45;;;;;;;3.53;1.40;;;;;;;-147.53;100.00;57128.34;10440646;28;20525;-83
2023/04/22 09:50:49;;;;;;;2.30;1.23;;;;;;;-147.53;100.00;57128.34;10478241;28;20523;-83
2023/04/22 09:55:55;;;;;;;2.30;1.27;;;;;;;-147.53;100.00;57128.34;10443493;28;20189;-81
2023/04/22 10:00:58;;;;;;;3.08;1.50;;;;;;;-147.53;100.00;57128.34;10448933;28;20127;-81
2023/04/22 10:06:00;;;;;;;4.85;1.92;;;;;;;-147.53;100.00;57128.34;10437124;28;20076;-75
2023/04/22 10:11:02;;;;;;;4.60;1.63;;;;;;;-147.53;100.00;57128.34;10454748;28;20058;-72
2023/04/22 10:16:03;;;;;;;2.15;1.10;;;;;;;-147.53;100.00;57128.34;10429244;28;20499;-71
2023/04/22 10:21:05;;;;;;;1.77;1.20;;;;;;;-147.53;100.00;57128.34;10454955;28;20052;-73
2023/04/22 10:26:08;;;;;;;3.72;1.42;;;;;;;-147.53;100.00;57128.34;10454147;28;20493;-72
2023/04/22 10:31:22;;;;;;;;;;;;;;;-147.53;100.00;57128.34;10455433;28;20584;-73
2023/04/22 10:36:24;;;;;;;6.10;1.48;;;;;;;-147.53;100.00;57128.34;10443149;28;19993;-71
2023/04/22 10:41:29;;;;;;;3.00;1.42;;;;;;;-147.53;100.00;57128.34;10454724;28;20588;-70
2023/04/22 10:46:31;;;;;;;3.63;1.45;;;;;;;-147.53;100.00;57128.34;10435838;28;20048;-71
2023/04/22 10:51:44;;;;;;;3.00;1.40;;;;;;;-147.53;100.00;57128.34;10462710;28;20090;-71
2023/04/22 10:57:13;;;;;;;3.38;1.77;;;;;;;-147.53;100.00;57128.34;10457804;28;20053;-71
2023/04/22 11:02:16;;;;;;;3.00;1.70;;;;;;;-147.53;100.00;57128.34;10447826;28;20056;-72
2023/04/22 11:07:29;;;;;;;3.38;1.77;;;;;;;-147.53;100.00;57128.34;10460076;28;20049;-72
2023/04/22 11:12:42;;;;;;;7.75;1.67;;;;;;;-147.53;100.00;57128.34;10435898;28;20049;-73
2023/04/22 11:17:47;;;;;;;2.88;1.40;;;;;;;-147.53;100.00;57128.34;10440665;28;20045;-80
2023/04/22 11:22:54;;;;;;;2.83;1.55;;;;;;;-147.53;100.00;57128.34;10455196;28;20131;-82
2023/04/22 11:27:57;;;;;;;328.63;219.70;;;;;;;-147.53;100.00;57128.34;10450024;28;20126;-82
2023/04/22 11:32:59;;;;;;;67.80;37.88;;;;;;;-147.53;100.00;57128.34;10454876;28;20075;-80
2023/04/22 11:38:04;;;;;;;564.72;362.42;;;;;;;-147.53;100.00;57128.34;10445747;28;20078;-79
2023/04/22 11:43:08;;;;;;;654.20;488.92;;;;;;;-147.53;100.00;57128.34;10483928;28;20118;-81
2023/04/22 11:48:10;;;;;;;43.78;37.83;;;;;;;-147.53;100.00;57128.34;10475597;28;20480;-80
2023/04/22 11:53:17;;;;;;;12.30;7.60;;;;;;;-147.53;100.00;57128.34;10449799;28;20522;-79
2023/04/22 11:58:26;;;;;;;23.47;10.30;;;;;;;-147.53;100.00;57128.34;10438900;28;20063;-86
2023/04/22 12:03:34;;;;;;;245.82;130.88;;;;;;;-147.53;100.00;57128.34;10447060;28;20704;-80
2023/04/22 12:08:40;;;;;;;54.53;29.92;;;;;;;-147.53;100.00;57128.34;10449087;28;20272;-83
2023/04/22 12:13:45;;;;;;;35.40;19.25;;;;;;;-147.53;100.00;57128.34;10466646;28;20048;-83
2023/04/22 12:18:48;;;;;;;6.82;2.90;;;;;;;-147.53;100.00;57128.34;10469134;28;20052;-86
2023/04/22 12:24:11;;;;;;;4.00;1.60;;;;;;;-147.53;100.00;57128.34;10462606;28;20112;-84
2023/04/22 12:29:14;;;;;;;4.93;2.10;;;;;;;-147.53;100.00;57128.34;10422354;28;20056;-83
2023/04/22 12:34:15;;;;;;;4.53;1.92;;;;;;;-147.53;100.00;57128.34;10470629;28;20048;-77
2023/04/22 12:39:18;;;;;;;2.63;1.35;;;;;;;-147.53;100.00;57128.34;10452735;28;20590;-85
2023/04/22 12:44:19;;;;;;;4.22;1.42;;;;;;;-147.53;100.00;57128.34;10455118;28;20428;-78
2023/04/22 12:49:23;;;;;;;2.28;1.05;;;;;;;-147.53;100.00;57128.34;10472170;28;20588;-77
2023/04/22 12:54:24;;;;;;;3.53;1.33;;;;;;;-147.53;100.00;57128.34;10446241;28;20045;-78
2023/04/22 12:59:26;;;;;;;8.73;2.95;;;;;;;-147.53;100.00;57128.34;10444161;28;20049;-81
2023/04/22 13:04:28;;;;;;;2.22;1.20;;;;;;;-147.53;100.00;57128.34;10422368;28;20057;-85
2023/04/22 13:09:29;;;;;;;;;;;;;;;-147.53;100.00;57128.34;10448852;28;20037;-85
2023/04/22 13:14:31;;;;;;;2.70;1.30;;;;;;;-147.53;100.00;57128.34;10442828;28;19924;-81
2023/04/22 13:19:34;;;;;;;4.65;1.58;;;;;;;-147.53;100.00;57128.34;10476487;28;20044;-77
2023/04/22 13:24:35;;;;;;;87.93;11.55;;;;;;;-147.53;100.00;57128.34;10475184;28;20098;-84
2023/04/22 13:29:38;;;;;;;2.42;1.10;;;;;;;-147.53;100.00;57128.34;10451549;28;20103;-81
2023/04/22 13:34:40;;;;;;;4.93;1.60;;;;;;;-147.53;100.00;57128.34;10427678;28;20139;-81
2023/04/22 13:39:42;;;;;;;1.45;1.02;;;;;;;-147.53;100.00;57128.34;10459389;28;20053;-82
2023/04/22 13:44:43;;;;;;;3.35;1.48;;;;;;;-147.53;100.00;57128.34;10458092;28;20394;-75
2023/04/22 13:49:45;;;;;;;10.00;1.70;;;;;;;-147.53;100.00;57128.34;10465205;28;20416;-74
2023/04/22 13:54:46;;;;;;;1.80;1.10;;;;;;;-147.53;100.00;57128.34;10442887;28;20607;-75
2023/04/22 13:59:49;;;;;;;2.42;1.58;;;;;;;-147.53;100.00;57128.34;10429338;28;20067;-74
2023/04/22 14:04:51;;;;;;;4.72;1.50;;;;;;;-147.53;100.00;57128.34;10426459;28;20049;-74
2023/04/22 14:09:52;;;;;;;3.53;1.50;;;;;;;-147.53;100.00;57128.34;10446006;28;20052;-75
2023/04/22 14:14:54;;;;;;;2.08;1.20;;;;;;;-147.53;100.00;57128.34;10443129;28;20045;-76
2023/04/22 14:19:55;;;;;;;3.45;1.38;;;;;;;-147.53;100.00;57128.34;10451883;28;20098;-76
2023/04/22 14:24:57;;;;;;;2.30;1.25;;;;;;;-147.53;100.00;57128.34;10454513;28;20770;-75
2023/04/22 14:30:00;;;;;;;2.67;1.25;;;;;;;-147.53;100.00;57128.34;10412737;28;20056;-75
2023/04/22 14:35:02;;;;;;;2.45;1.27;;;;;;;-147.53;100.00;57128.34;10437179;28;20048;-76
2023/04/22 14:40:04;;;;;;;2.70;1.30;;;;;;;-147.53;100.00;57128.34;10453746;28;20059;-75
2023/04/22 14:45:06;;;;;;;3.55;1.42;;;;;;;-147.53;100.00;57128.34;10452936;28;20053;-75
2023/04/22 14:50:08;;;;;;;4.35;1.20;;;;;;;-147.53;100.00;57128.34;10427474;28;20143;-80
2023/04/22 14:55:10;;;;;;;2.60;1.30;;;;;;;-147.53;100.00;57128.34;10439331;28;20060;-81
2023/04/22 15:00:25;;;;;;;4.85;1.35;;;;;;;-147.53;100.00;57128.34;10459110;28;20080;-82
2023/04/22 15:05:27;;;;;;;1.80;0.95;;;;;;;-147.53;100.00;57128.34;10436703;28;20049;-82
2023/04/22 15:10:29;;;;;;;1.27;0.93;;;;;;;-147.53;100.00;57128.34;10438147;28;20052;-83
2023/04/22 15:15:31;;;;;;;2.50;1.23;;;;;;;-147.53;100.00;57128.34;10423247;28;20067;-84
2023/04/22 15:20:34;;;;;;;2.45;1.35;;;;;;;-147.53;100.00;57128.34;10467945;28;20060;-81
2023/04/22 15:25:36;;;;;;;1.98;1.15;;;;;;;-147.53;100.00;57128.34;10452959;28;20075;-79
2023/04/22 15:30:39;;;;;;;1.98;1.20;;;;;;;-147.53;100.00;57128.34;10451764;28;20454;-79
2023/04/22 15:35:44;;;;;;;1.85;0.95;;;;;;;-147.53;100.00;57128.34;10483849;28;20118;-78
2023/04/22 15:40:46;;;;;;;3.22;1.35;;;;;;;-147.53;100.00;57128.34;10465377;28;20114;-79
2023/04/22 15:45:48;;;;;;;2.72;1.27;;;;;;;-147.53;100.00;57128.34;10460299;28;20060;-77
2023/04/22 15:50:49;;;;;;;3.35;1.35;;;;;;;-147.53;100.00;57128.34;10471119;28;20520;-78
2023/04/22 15:55:51;;;;;;;1.45;0.95;;;;;;;-147.53;100.00;57128.34;10476640;28;20056;-77
2023/04/22 16:00:53;;;;;;;2.47;1.08;;;;;;;-147.53;100.00;57128.34;10466050;28;20060;-77
2023/04/22 16:05:55;;;;;;;6.65;1.30;;;;;;;-147.53;100.00;57128.34;10454546;28;20061;-76
2023/04/22 16:10:57;;;;;;;5.45;1.40;;;;;;;-147.53;100.00;57128.34;10458179;28;20056;-77
2023/04/22 16:15:59;;;;;;;1.67;1.20;;;;;;;-147.53;100.00;57128.34;10428369;28;20055;-77
2023/04/22 16:21:00;;;;;;;1.83;1.10;;;;;;;-147.53;100.00;57128.34;10445428;28;20053;-78
2023/04/22 16:26:04;;;;;;;7.90;1.48;;;;;;;-147.53;100.00;57128.34;10428657;28;20044;-80
2023/04/22 16:31:07;;;;;;;2.85;1.48;;;;;;;-147.53;100.00;57128.34;10475196;28;20625;-79
2023/04/22 16:36:09;;;;;;;4.30;1.77;;;;;;;-147.53;100.00;57128.34;10455282;28;20084;-80
2023/04/22 16:41:11;;;;;;;4.60;1.60;;;;;;;-147.53;100.00;57128.34;10451281;28;20088;-80
2023/04/22 16:46:12;;;;;;;4.50;1.45;;;;;;;-147.53;100.00;57128.34;10442495;28;20297;-81
2023/04/22 16:51:15;;;;;;;4.20;1.45;;;;;;;-147.53;100.00;57128.34;10444466;28;20056;-81
2023/04/22 16:56:16;;;;;;;1.75;1.15;;;;;;;-147.53;100.00;57128.34;10455226;28;20045;-81
2023/04/22 17:01:19;;;;;;;4.25;1.48;;;;;;;-147.53;100.00;57128.34;10427294;28;20076;-81
2023/04/22 17:06:20;;;;;;;3.35;1.45;;;;;;;-147.53;100.00;57128.34;10452092;28;20080;-82
2023/04/22 17:11:22;;;;;;;3.40;1.35;;;;;;;-147.53;100.00;57128.34;10457492;28;20048;-81
2023/04/22 17:16:25;;;;;;;2.22;1.42;;;;;;;-147.53;100.00;57128.34;10442454;28;20490;-80
2023/04/22 17:21:27;;;;;;;3.08;1.55;;;;;;;-147.53;100.00;57128.34;10469345;28;20051;-82
2023/04/22 17:26:29;;;;;;;2.53;1.60;;;;;;;-147.53;100.00;57128.34;10471079;28;20053;-81
2023/04/22 17:31:32;;;;;;;3.05;1.58;;;;;;;-147.53;100.00;57128.34;10457440;28;20053;-82
2023/04/22 17:36:34;;;;;;;3.50;1.58;;;;;;;-147.53;100.00;57128.34;10450175;28;20133;-82
2023/04/22 17:41:35;;;;;;;3.63;1.25;;;;;;;-147.53;100.00;57128.34;10444477;28;20048;-82
2023/04/22 17:46:37;;;;;;;3.35;1.52;;;;;;;-147.53;100.00;57128.34;10410771;28;20099;-82
2023/04/22 17:51:40;;;;;;;2.30;1.30;;;;;;;-147.53;100.00;57128.34;10439846;28;20140;-82
2023/04/22 17:56:46;;;;;;;4.00;2.13;;;;;;;-147.53;100.00;57128.34;10437197;28;20606;-82
2023/04/22 18:02:04;;;;;;;2.90;1.70;;;;;;;-147.53;100.00;57128.34;10428221;28;20350;-83
2023/04/22 18:07:06;;;;;;;4.10;1.98;;;;;;;-147.53;100.00;57128.34;10443540;28;20079;-83
2023/04/22 18:12:13;;;;;;;3.13;1.75;;;;;;;-147.53;100.00;57128.34;10445748;28;20045;-83
2023/04/22 18:17:26;;;;;;;4.63;1.80;;;;;;;-147.53;100.00;57128.34;10475139;28;20045;-84
2023/04/22 18:22:35;;;;;;;3.25;1.73;;;;;;;-147.53;100.00;57128.34;10458650;28;20365;-84
2023/04/22 18:35:05;;;;;;;5.13;2.08;;;;;;;-147.53;100.00;57128.34;10443558;28;20117;-86
2023/04/22 18:41:31;;;;;;;5.68;2.15;;;;;;;-147.53;100.00;57128.34;10257418;28;20051;-86
2023/04/22 18:46:54;;;;;;;;;;;;;;;;;;;;;
2023/04/22 20:19:36;;;;;;;6.20;3.28;;;;;;;-147.53;100.00;57128.34;10576361;23;20110;-83
2023/04/22 20:25:11;;;;;;;6.45;3.15;;;;;;;-147.53;100.00;57128.34;10299332;28;20058;-86
2023/04/22 20:30:13;;;;;;;7.13;3.40;;;;;;;-147.53;100.00;57128.34;10322207;28;20074;-84
2023/04/22 20:35:15;;;;;;;10.60;4.20;;;;;;;-147.53;100.00;57128.34;10329348;28;20322;-82
2023/04/22 20:40:17;;;;;;;7.25;3.80;;;;;;;-147.53;100.00;57128.34;10320922;28;20499;-84
2023/04/22 20:45:19;;;;;;;7.40;3.63;;;;;;;-147.53;100.00;57128.34;10322564;28;20061;-85
2023/04/22 20:50:21;;;;;;;9.73;3.28;;;;;;;-147.53;100.00;57128.34;10322653;28;20074;-83
2023/04/22 20:55:23;;;;;;;6.95;3.17;;;;;;;-147.53;100.00;57128.34;10328283;28;20062;-83
2023/04/22 21:00:24;;;;;;;6.50;3.38;;;;;;;-147.53;100.00;57128.34;10309200;28;20050;-84
2023/04/22 21:05:27;;;;;;;7.93;3.83;;;;;;;-147.53;100.00;57128.34;10321215;28;20762;-84
2023/04/22 21:10:29;;;;;;;8.68;3.75;;;;;;;-147.53;100.00;57128.34;10321812;28;20275;-83
2023/04/22 21:15:31;;;;;;;7.20;3.45;;;;;;;-147.53;100.00;57128.34;10330325;28;20051;-83
2023/04/22 21:20:42;;;;;;;7.72;3.45;;;;;;;-147.53;100.00;57128.34;10334071;28;20050;-83
2023/04/22 21:25:47;;;;;;;4.72;2.50;;;;;;;-147.53;100.00;57128.34;10333976;28;20046;-83
2023/04/22 21:30:49;;;;;;;8.23;3.20;;;;;;;-147.53;100.00;57128.34;10332943;28;20046;-83
2023/04/22 21:35:50;;;;;;;5.70;2.47;;;;;;;-147.53;100.00;57128.34;10333304;28;20522;-83
2023/04/22 21:40:52;;;;;;;7.85;3.22;;;;;;;-147.53;100.00;57128.34;10334266;28;20054;-82
2023/04/22 21:45:54;;;;;;;3.38;1.90;;;;;;;-147.53;100.00;57128.34;10331836;28;20477;-83
2023/04/22 21:50:55;;;;;;;4.63;2.10;;;;;;;-147.53;100.00;57128.34;10327686;28;20042;-84
2023/04/22 21:55:57;;;;;;;9.27;1.85;;;;;;;-147.53;100.00;57128.34;10319652;28;20153;-85
2023/04/22 22:00:59;;;;;;;4.50;2.10;;;;;;;-147.53;100.00;57128.34;10316250;28;20052;-85
2023/04/22 22:06:01;;;;;;;4.90;2.40;;;;;;;-147.53;100.00;57128.34;10316209;28;20057;-84
2023/04/22 22:11:04;;;;;;;3.63;2.10;;;;;;;-147.53;100.00;57128.34;10300072;28;20057;-84
2023/04/22 22:16:08;;;;;;;5.50;2.53;;;;;;;-147.53;100.00;57128.34;10298593;28;20081;-85
2023/04/22 22:21:10;;;;;;;5.20;2.50;;;;;;;-147.53;100.00;57128.34;10316396;28;20130;-85
2023/04/22 22:26:12;;;;;;;6.38;2.90;;;;;;;-147.53;100.00;57128.34;10293265;28;20050;-87
2023/04/22 22:31:14;;;;;;;7.28;3.30;;;;;;;-147.53;100.00;57128.34;10302681;28;20441;-87
2023/04/22 22:36:16;;;;;;;6.72;3.20;;;;;;;-147.53;100.00;57128.34;10302924;28;20578;-87
2023/04/22 22:41:18;;;;;;;7.13;3.03;;;;;;;-147.53;100.00;57128.34;10304072;28;20081;-86
2023/04/22 22:46:19;;;;;;;6.07;3.10;;;;;;;-147.53;100.00;57128.34;10309749;28;20137;-87
2023/04/22 22:51:36;;;;;;;6.15;2.97;;;;;;;-147.53;100.00;57128.34;10331689;28;20046;-86
2023/04/22 22:56:49;;;;;;;6.15;3.45;;;;;;;-147.53;100.00;57128.34;10314408;28;20092;-87
2023/04/22 23:01:57;;;;;;;8.43;4.38;;;;;;;-147.53;100.00;57128.34;10317493;28;20057;-88
2023/04/22 23:13:17;;;;;;;10.82;4.55;;;;;;;-147.53;100.00;57128.34;10333782;28;20046;-87
2023/04/22 23:18:19;;;;;;;7.60;3.80;;;;;;;-147.53;100.00;57128.34;10322783;28;20085;-87
2023/04/22 23:23:22;;;;;;;7.70;3.50;;;;;;;-147.53;100.00;57128.34;10338001;28;20141;-87
2023/04/22 23:28:26;;;;;;;9.10;4.40;;;;;;;-147.53;100.00;57128.34;10323572;28;20082;-86
2023/04/22 23:33:30;;;;;;;10.85;4.88;;;;;;;-147.53;100.00;57128.34;10340928;28;20065;-85
2023/04/22 23:38:32;;;;;;;9.32;4.15;;;;;;;-147.53;100.00;57128.34;10346473;28;20061;-88
2023/04/22 23:43:33;;;;;;;10.48;5.30;;;;;;;-147.53;100.00;57128.34;10328408;28;20147;-87
2023/04/22 23:48:36;;;;;;;10.13;4.93;;;;;;;-147.53;100.00;57128.34;10330683;28;20110;-88
2023/04/22 23:53:38;;;;;;;11.43;4.93;;;;;;;-147.53;100.00;57128.34;10342894;28;20089;-87
2023/04/22 23:58:48;;;;;;;9.23;4.57;;;;;;;-147.53;100.00;57128.34;10330385;28;20434;-87
